sensor_id;sensor_type;location;lat;lon;timestamp;temperature;humidity
63313;DHT22;49442;45.640;13.812;2024-03-23T00:54:35;12.30;99.90
63313;DHT22;49442;45.640;13.812;2024-03-23T00:57:01;12.30;99.90
63313;DHT22;49442;45.640;13.812;2024-03-23T00:59:27;12.20;99.90
63313;DHT22;49442;45.640;13.812;2024-03-23T01:01:54;12.10;99.90
63313;DHT22;49442;45.640;13.812;2024-03-23T01:04:20;12.10;99.90
63313;DHT22;49442;45.640;13.812;2024-03-23T01:06:46;12.20;99.90
63313;DHT22;49442;45.640;13.812;2024-03-23T01:09:12;12.20;99.90
63313;DHT22;49442;45.640;13.812;2024-03-23T01:11:39;12.10;99.90
63313;DHT22;49442;45.640;13.812;2024-03-23T01:14:05;12.10;99.90
63313;DHT22;49442;45.640;13.812;2024-03-23T01:16:32;12.00;99.90
63313;DHT22;49442;45.640;13.812;2024-03-23T01:18:57;12.10;99.90
63313;DHT22;49442;45.640;13.812;2024-03-23T01:21:23;12.20;99.90
63313;DHT22;49442;45.640;13.812;2024-03-23T01:23:49;12.10;99.90
63313;DHT22;49442;45.640;13.812;2024-03-23T01:26:14;12.20;99.90
63313;DHT22;49442;45.640;13.812;2024-03-23T01:28:40;12.10;99.90
63313;DHT22;49442;45.640;13.812;2024-03-23T01:31:06;12.10;99.90
63313;DHT22;49442;45.640;13.812;2024-03-23T01:33:32;12.00;99.90
63313;DHT22;49442;45.640;13.812;2024-03-23T01:35:57;12.00;99.90
63313;DHT22;49442;45.640;13.812;2024-03-23T01:38:23;12.00;99.90
63313;DHT22;49442;45.640;13.812;2024-03-23T01:40:49;11.90;99.90
63313;DHT22;49442;45.640;13.812;2024-03-23T01:43:15;11.90;99.90
63313;DHT22;49442;45.640;13.812;2024-03-23T01:45:40;11.80;99.90
63313;DHT22;49442;45.640;13.812;2024-03-23T01:48:07;11.80;99.90
63313;DHT22;49442;45.640;13.812;2024-03-23T01:50:33;11.80;99.90
63313;DHT22;49442;45.640;13.812;2024-03-23T01:53:02;11.90;99.90
63313;DHT22;49442;45.640;13.812;2024-03-23T01:55:28;11.80;99.90
63313;DHT22;49442;45.640;13.812;2024-03-23T01:57:56;11.70;99.90
63313;DHT22;49442;45.640;13.812;2024-03-23T02:00:23;11.60;99.90
63313;DHT22;49442;45.640;13.812;2024-03-23T02:02:49;11.60;99.90
63313;DHT22;49442;45.640;13.812;2024-03-23T02:05:14;11.60;99.90
63313;DHT22;49442;45.640;13.812;2024-03-23T02:07:41;11.50;99.90
63313;DHT22;49442;45.640;13.812;2024-03-23T02:10:09;11.50;99.90
63313;DHT22;49442;45.640;13.812;2024-03-23T02:12:35;11.40;99.90
63313;DHT22;49442;45.640;13.812;2024-03-23T02:15:01;11.40;99.90
63313;DHT22;49442;45.640;13.812;2024-03-23T02:17:29;11.30;99.90
63313;DHT22;49442;45.640;13.812;2024-03-23T02:19:55;11.30;99.90
63313;DHT22;49442;45.640;13.812;2024-03-23T02:22:21;11.30;99.90
63313;DHT22;49442;45.640;13.812;2024-03-23T02:24:47;11.30;99.90
63313;DHT22;49442;45.640;13.812;2024-03-23T02:27:12;11.30;99.90
63313;DHT22;49442;45.640;13.812;2024-03-23T02:29:38;11.20;99.90
63313;DHT22;49442;45.640;13.812;2024-03-23T02:32:04;11.20;99.90
63313;DHT22;49442;45.640;13.812;2024-03-23T02:34:30;11.10;99.90
63313;DHT22;49442;45.640;13.812;2024-03-23T02:36:55;11.10;99.90
63313;DHT22;49442;45.640;13.812;2024-03-23T02:39:21;11.10;99.90
63313;DHT22;49442;45.640;13.812;2024-03-23T02:41:47;11.00;99.90
63313;DHT22;49442;45.640;13.812;2024-03-23T02:44:13;11.00;99.90
63313;DHT22;49442;45.640;13.812;2024-03-23T02:46:39;11.00;99.90
63313;DHT22;49442;45.640;13.812;2024-03-23T02:49:05;10.90;99.90
63313;DHT22;49442;45.640;13.812;2024-03-23T02:51:31;11.00;99.90
63313;DHT22;49442;45.640;13.812;2024-03-23T02:53:57;11.00;99.90
63313;DHT22;49442;45.640;13.812;2024-03-23T02:56:22;11.00;99.90
63313;DHT22;49442;45.640;13.812;2024-03-23T02:58:48;10.90;99.90
63313;DHT22;49442;45.640;13.812;2024-03-23T03:01:14;10.90;99.90
63313;DHT22;49442;45.640;13.812;2024-03-23T03:03:40;10.90;99.90
63313;DHT22;49442;45.640;13.812;2024-03-23T03:06:06;11.00;99.90
63313;DHT22;49442;45.640;13.812;2024-03-23T03:08:31;10.90;99.90
63313;DHT22;49442;45.640;13.812;2024-03-23T03:10:57;10.90;99.90
63313;DHT22;49442;45.640;13.812;2024-03-23T03:13:23;11.00;99.90
63313;DHT22;49442;45.640;13.812;2024-03-23T03:15:48;11.00;99.90
63313;DHT22;49442;45.640;13.812;2024-03-23T03:18:14;10.90;99.90
63313;DHT22;49442;45.640;13.812;2024-03-23T03:20:40;10.90;99.90
63313;DHT22;49442;45.640;13.812;2024-03-23T03:23:09;10.80;99.90
63313;DHT22;49442;45.640;13.812;2024-03-23T03:25:35;10.80;99.90
63313;DHT22;49442;45.640;13.812;2024-03-23T03:28:01;10.80;99.90
63313;DHT22;49442;45.640;13.812;2024-03-23T03:30:27;10.80;99.90
63313;DHT22;49442;45.640;13.812;2024-03-23T03:32:53;11.00;99.90
63313;DHT22;49442;45.640;13.812;2024-03-23T03:35:19;10.90;99.90
63313;DHT22;49442;45.640;13.812;2024-03-23T03:37:45;10.90;99.90
63313;DHT22;49442;45.640;13.812;2024-03-23T03:40:11;10.70;99.90
63313;DHT22;49442;45.640;13.812;2024-03-23T03:42:37;10.50;99.90
63313;DHT22;49442;45.640;13.812;2024-03-23T03:45:04;10.40;99.90
63313;DHT22;49442;45.640;13.812;2024-03-23T03:47:30;10.50;99.90
63313;DHT22;49442;45.640;13.812;2024-03-23T03:49:56;10.60;99.90
63313;DHT22;49442;45.640;13.812;2024-03-23T03:52:21;10.60;99.90
63313;DHT22;49442;45.640;13.812;2024-03-23T03:54:47;10.60;99.90
63313;DHT22;49442;45.640;13.812;2024-03-23T03:57:13;10.40;99.90
63313;DHT22;49442;45.640;13.812;2024-03-23T03:59:39;10.50;99.90
63313;DHT22;49442;45.640;13.812;2024-03-23T04:02:04;10.50;99.90
63313;DHT22;49442;45.640;13.812;2024-03-23T04:04:30;10.40;99.90
63313;DHT22;49442;45.640;13.812;2024-03-23T04:07:02;10.50;99.90
63313;DHT22;49442;45.640;13.812;2024-03-23T04:09:28;10.60;99.90
63313;DHT22;49442;45.640;13.812;2024-03-23T04:11:54;10.50;99.90
63313;DHT22;49442;45.640;13.812;2024-03-23T04:14:20;10.50;99.90
63313;DHT22;49442;45.640;13.812;2024-03-23T04:16:46;10.50;99.90
63313;DHT22;49442;45.640;13.812;2024-03-23T04:19:11;10.30;99.90
63313;DHT22;49442;45.640;13.812;2024-03-23T04:21:38;10.40;99.90
63313;DHT22;49442;45.640;13.812;2024-03-23T04:24:04;10.30;99.90
63313;DHT22;49442;45.640;13.812;2024-03-23T04:26:39;10.20;99.90
63313;DHT22;49442;45.640;13.812;2024-03-23T04:29:05;10.30;99.90
63313;DHT22;49442;45.640;13.812;2024-03-23T04:31:31;10.20;99.90
63313;DHT22;49442;45.640;13.812;2024-03-23T04:34:00;10.20;99.90
63313;DHT22;49442;45.640;13.812;2024-03-23T04:36:26;10.10;99.90
63313;DHT22;49442;45.640;13.812;2024-03-23T04:38:51;10.10;99.90
63313;DHT22;49442;45.640;13.812;2024-03-23T04:41:18;10.20;99.90
63313;DHT22;49442;45.640;13.812;2024-03-23T04:43:44;10.30;99.90
63313;DHT22;49442;45.640;13.812;2024-03-23T04:46:09;10.50;99.90
63313;DHT22;49442;45.640;13.812;2024-03-23T04:48:35;10.40;99.90
63313;DHT22;49442;45.640;13.812;2024-03-23T04:51:01;10.50;99.90
63313;DHT22;49442;45.640;13.812;2024-03-23T04:53:27;10.40;99.90
63313;DHT22;49442;45.640;13.812;2024-03-23T04:55:56;10.30;99.90
63313;DHT22;49442;45.640;13.812;2024-03-23T04:58:22;10.20;99.90
63313;DHT22;49442;45.640;13.812;2024-03-23T05:00:53;10.10;99.90
63313;DHT22;49442;45.640;13.812;2024-03-23T05:03:19;10.10;99.90
63313;DHT22;49442;45.640;13.812;2024-03-23T05:05:47;10.30;99.90
63313;DHT22;49442;45.640;13.812;2024-03-23T05:08:13;10.30;99.90
63313;DHT22;49442;45.640;13.812;2024-03-23T05:10:39;10.20;99.90
63313;DHT22;49442;45.640;13.812;2024-03-23T05:13:04;10.20;99.90
63313;DHT22;49442;45.640;13.812;2024-03-23T05:15:30;10.20;99.90
63313;DHT22;49442;45.640;13.812;2024-03-23T05:17:56;10.20;99.90
63313;DHT22;49442;45.640;13.812;2024-03-23T05:20:21;10.30;99.90
63313;DHT22;49442;45.640;13.812;2024-03-23T05:22:47;10.30;99.90
63313;DHT22;49442;45.640;13.812;2024-03-23T05:25:12;10.30;99.90
63313;DHT22;49442;45.640;13.812;2024-03-23T05:27:38;10.30;99.90
63313;DHT22;49442;45.640;13.812;2024-03-23T05:30:04;10.40;99.90
63313;DHT22;49442;45.640;13.812;2024-03-23T05:32:31;10.50;99.90
63313;DHT22;49442;45.640;13.812;2024-03-23T05:34:57;10.50;99.90
63313;DHT22;49442;45.640;13.812;2024-03-23T05:37:23;10.50;99.90
63313;DHT22;49442;45.640;13.812;2024-03-23T05:39:49;10.40;99.90
63313;DHT22;49442;45.640;13.812;2024-03-23T05:42:18;10.40;99.90
63313;DHT22;49442;45.640;13.812;2024-03-23T05:44:45;10.50;99.90
63313;DHT22;49442;45.640;13.812;2024-03-23T05:47:11;10.50;99.90
63313;DHT22;49442;45.640;13.812;2024-03-23T05:49:38;10.50;99.90
63313;DHT22;49442;45.640;13.812;2024-03-23T05:52:04;10.40;99.90
63313;DHT22;49442;45.640;13.812;2024-03-23T05:54:30;10.40;99.90
63313;DHT22;49442;45.640;13.812;2024-03-23T05:56:56;10.50;99.90
63313;DHT22;49442;45.640;13.812;2024-03-23T05:59:21;10.50;99.90
63313;DHT22;49442;45.640;13.812;2024-03-23T06:01:47;10.50;99.90
63313;DHT22;49442;45.640;13.812;2024-03-23T06:04:13;10.60;99.90
63313;DHT22;49442;45.640;13.812;2024-03-23T06:06:39;10.60;99.90
63313;DHT22;49442;45.640;13.812;2024-03-23T06:09:05;10.70;99.90
63313;DHT22;49442;45.640;13.812;2024-03-23T06:11:31;10.70;99.90
63313;DHT22;49442;45.640;13.812;2024-03-23T06:13:56;10.80;99.90
63313;DHT22;49442;45.640;13.812;2024-03-23T06:16:22;10.80;99.90
63313;DHT22;49442;45.640;13.812;2024-03-23T06:18:52;10.90;99.90
63313;DHT22;49442;45.640;13.812;2024-03-23T06:21:18;11.00;99.90
63313;DHT22;49442;45.640;13.812;2024-03-23T06:23:45;11.00;99.90
63313;DHT22;49442;45.640;13.812;2024-03-23T06:26:20;11.10;99.90
63313;DHT22;49442;45.640;13.812;2024-03-23T06:28:46;11.20;99.90
63313;DHT22;49442;45.640;13.812;2024-03-23T06:31:12;11.30;99.90
63313;DHT22;49442;45.640;13.812;2024-03-23T06:33:38;11.40;99.90
63313;DHT22;49442;45.640;13.812;2024-03-23T06:36:05;11.50;99.90
63313;DHT22;49442;45.640;13.812;2024-03-23T06:38:31;11.60;99.90
63313;DHT22;49442;45.640;13.812;2024-03-23T06:40:57;11.70;99.90
63313;DHT22;49442;45.640;13.812;2024-03-23T06:43:23;11.90;99.90
63313;DHT22;49442;45.640;13.812;2024-03-23T06:45:55;12.00;99.90
63313;DHT22;49442;45.640;13.812;2024-03-23T06:48:21;12.30;99.90
63313;DHT22;49442;45.640;13.812;2024-03-23T06:50:47;12.70;99.90
63313;DHT22;49442;45.640;13.812;2024-03-23T06:53:13;12.70;99.90
63313;DHT22;49442;45.640;13.812;2024-03-23T06:55:39;13.00;99.90
63313;DHT22;49442;45.640;13.812;2024-03-23T06:58:05;13.10;99.90
63313;DHT22;49442;45.640;13.812;2024-03-23T07:00:31;13.20;99.90
63313;DHT22;49442;45.640;13.812;2024-03-23T07:02:58;13.20;99.90
63313;DHT22;49442;45.640;13.812;2024-03-23T07:05:24;13.30;99.90
63313;DHT22;49442;45.640;13.812;2024-03-23T07:07:49;13.30;99.90
63313;DHT22;49442;45.640;13.812;2024-03-23T07:10:15;13.40;99.90
63313;DHT22;49442;45.640;13.812;2024-03-23T07:12:41;13.60;99.90
63313;DHT22;49442;45.640;13.812;2024-03-23T07:15:07;13.60;99.90
63313;DHT22;49442;45.640;13.812;2024-03-23T07:17:33;13.60;99.90
63313;DHT22;49442;45.640;13.812;2024-03-23T07:20:03;13.70;99.90
63313;DHT22;49442;45.640;13.812;2024-03-23T07:22:30;13.80;99.90
63313;DHT22;49442;45.640;13.812;2024-03-23T07:24:56;13.90;99.90
63313;DHT22;49442;45.640;13.812;2024-03-23T07:27:21;14.10;99.90
63313;DHT22;49442;45.640;13.812;2024-03-23T07:29:49;14.40;99.90
63313;DHT22;49442;45.640;13.812;2024-03-23T07:32:14;14.60;99.90
63313;DHT22;49442;45.640;13.812;2024-03-23T07:34:43;14.80;99.90
63313;DHT22;49442;45.640;13.812;2024-03-23T07:37:10;15.10;99.90
63313;DHT22;49442;45.640;13.812;2024-03-23T07:39:36;15.50;99.90
63313;DHT22;49442;45.640;13.812;2024-03-23T07:42:02;15.70;99.90
63313;DHT22;49442;45.640;13.812;2024-03-23T07:44:28;15.90;99.30
63313;DHT22;49442;45.640;13.812;2024-03-23T07:46:54;16.00;99.70
63313;DHT22;49442;45.640;13.812;2024-03-23T07:49:19;16.20;99.40
63313;DHT22;49442;45.640;13.812;2024-03-23T07:51:45;16.20;98.10
63313;DHT22;49442;45.640;13.812;2024-03-23T07:54:11;16.20;98.60
63313;DHT22;49442;45.640;13.812;2024-03-23T07:56:37;16.30;98.30
63313;DHT22;49442;45.640;13.812;2024-03-23T07:59:02;16.30;99.00
63313;DHT22;49442;45.640;13.812;2024-03-23T08:01:30;16.30;99.20
63313;DHT22;49442;45.640;13.812;2024-03-23T08:03:56;16.40;98.60
63313;DHT22;49442;45.640;13.812;2024-03-23T08:06:22;16.50;98.50
63313;DHT22;49442;45.640;13.812;2024-03-23T08:08:54;16.60;98.60
63313;DHT22;49442;45.640;13.812;2024-03-23T08:11:32;16.50;98.80
63313;DHT22;49442;45.640;13.812;2024-03-23T08:14:00;16.60;99.20
63313;DHT22;49442;45.640;13.812;2024-03-23T08:16:27;16.60;98.40
63313;DHT22;49442;45.640;13.812;2024-03-23T08:18:53;16.70;97.90
63313;DHT22;49442;45.640;13.812;2024-03-23T08:21:19;16.70;98.40
63313;DHT22;49442;45.640;13.812;2024-03-23T08:23:44;16.80;98.80
63313;DHT22;49442;45.640;13.812;2024-03-23T08:26:12;16.90;98.50
63313;DHT22;49442;45.640;13.812;2024-03-23T08:28:40;17.10;99.00
63313;DHT22;49442;45.640;13.812;2024-03-23T08:31:13;17.10;98.00
63313;DHT22;49442;45.640;13.812;2024-03-23T08:33:40;17.30;98.00
63313;DHT22;49442;45.640;13.812;2024-03-23T08:36:08;17.40;97.70
63313;DHT22;49442;45.640;13.812;2024-03-23T08:38:35;17.60;97.50
63313;DHT22;49442;45.640;13.812;2024-03-23T08:41:02;17.80;97.00
63313;DHT22;49442;45.640;13.812;2024-03-23T08:43:29;18.10;97.70
63313;DHT22;49442;45.640;13.812;2024-03-23T08:46:06;18.40;96.60
63313;DHT22;49442;45.640;13.812;2024-03-23T08:48:34;18.40;95.70
63313;DHT22;49442;45.640;13.812;2024-03-23T08:51:07;18.80;96.10
63313;DHT22;49442;45.640;13.812;2024-03-23T08:53:34;19.20;95.20
63313;DHT22;49442;45.640;13.812;2024-03-23T08:56:01;19.50;95.30
63313;DHT22;49442;45.640;13.812;2024-03-23T08:58:28;19.90;93.50
63313;DHT22;49442;45.640;13.812;2024-03-23T09:00:55;20.70;93.10
63313;DHT22;49442;45.640;13.812;2024-03-23T09:03:24;21.10;91.60
63313;DHT22;49442;45.640;13.812;2024-03-23T09:05:51;21.50;91.00
63313;DHT22;49442;45.640;13.812;2024-03-23T09:08:17;21.30;91.30
63313;DHT22;49442;45.640;13.812;2024-03-23T09:10:43;21.50;90.40
63313;DHT22;49442;45.640;13.812;2024-03-23T09:13:09;22.60;90.10
63313;DHT22;49442;45.640;13.812;2024-03-23T09:15:36;24.30;83.70
63313;DHT22;49442;45.640;13.812;2024-03-23T09:18:02;23.40;85.80
63313;DHT22;49442;45.640;13.812;2024-03-23T09:20:28;24.10;83.70
63313;DHT22;49442;45.640;13.812;2024-03-23T09:22:54;24.80;82.20
63313;DHT22;49442;45.640;13.812;2024-03-23T09:25:20;24.90;81.70
63313;DHT22;49442;45.640;13.812;2024-03-23T09:27:48;24.10;79.40
63313;DHT22;49442;45.640;13.812;2024-03-23T09:30:14;23.30;82.90
63313;DHT22;49442;45.640;13.812;2024-03-23T09:32:42;22.60;84.80
63313;DHT22;49442;45.640;13.812;2024-03-23T09:35:08;22.10;85.90
63313;DHT22;49442;45.640;13.812;2024-03-23T09:37:34;21.60;86.80
63313;DHT22;49442;45.640;13.812;2024-03-23T09:40:00;21.50;89.50
63313;DHT22;49442;45.640;13.812;2024-03-23T09:42:25;21.30;89.40
63313;DHT22;49442;45.640;13.812;2024-03-23T09:44:52;20.90;90.20
63313;DHT22;49442;45.640;13.812;2024-03-23T09:47:18;20.80;90.20
63313;DHT22;49442;45.640;13.812;2024-03-23T09:49:44;20.50;89.70
63313;DHT22;49442;45.640;13.812;2024-03-23T09:52:10;20.30;90.20
63313;DHT22;49442;45.640;13.812;2024-03-23T09:54:36;19.90;90.80
63313;DHT22;49442;45.640;13.812;2024-03-23T09:57:01;19.90;92.00
63313;DHT22;49442;45.640;13.812;2024-03-23T09:59:28;20.70;91.00
63313;DHT22;49442;45.640;13.812;2024-03-23T10:01:55;22.60;88.70
63313;DHT22;49442;45.640;13.812;2024-03-23T10:04:40;24.60;83.70
63313;DHT22;49442;45.640;13.812;2024-03-23T10:07:18;23.00;82.80
63313;DHT22;49442;45.640;13.812;2024-03-23T10:09:44;21.80;87.50
63313;DHT22;49442;45.640;13.812;2024-03-23T10:12:14;21.40;89.60
63313;DHT22;49442;45.640;13.812;2024-03-23T10:14:43;23.40;87.70
63313;DHT22;49442;45.640;13.812;2024-03-23T10:19:39;25.60;79.70
63313;DHT22;49442;45.640;13.812;2024-03-23T10:22:06;24.10;79.70
63313;DHT22;49442;45.640;13.812;2024-03-23T10:24:32;22.80;84.90
63313;DHT22;49442;45.640;13.812;2024-03-23T10:26:58;21.80;87.40
63313;DHT22;49442;45.640;13.812;2024-03-23T10:29:23;21.10;91.80
63313;DHT22;49442;45.640;13.812;2024-03-23T10:31:51;20.60;92.00
63313;DHT22;49442;45.640;13.812;2024-03-23T10:34:25;20.40;93.80
63313;DHT22;49442;45.640;13.812;2024-03-23T10:36:53;20.40;94.80
63313;DHT22;49442;45.640;13.812;2024-03-23T10:39:21;20.50;93.10
63313;DHT22;49442;45.640;13.812;2024-03-23T10:41:49;20.30;93.00
63313;DHT22;49442;45.640;13.812;2024-03-23T10:44:17;20.00;93.40
63313;DHT22;49442;45.640;13.812;2024-03-23T10:46:45;19.80;94.50
63313;DHT22;49442;45.640;13.812;2024-03-23T10:49:10;19.70;97.70
63313;DHT22;49442;45.640;13.812;2024-03-23T10:51:37;19.70;97.70
63313;DHT22;49442;45.640;13.812;2024-03-23T10:54:06;19.50;98.90
63313;DHT22;49442;45.640;13.812;2024-03-23T10:56:33;19.40;99.90
63313;DHT22;49442;45.640;13.812;2024-03-23T10:59:02;19.30;99.90
63313;DHT22;49442;45.640;13.812;2024-03-23T11:01:29;19.40;99.90
63313;DHT22;49442;45.640;13.812;2024-03-23T11:03:54;19.30;99.90
63313;DHT22;49442;45.640;13.812;2024-03-23T11:06:39;19.20;99.90
63313;DHT22;49442;45.640;13.812;2024-03-23T11:12:29;19.10;99.90
63313;DHT22;49442;45.640;13.812;2024-03-23T11:15:02;19.10;99.90
63313;DHT22;49442;45.640;13.812;2024-03-23T11:17:29;19.20;99.90
63313;DHT22;49442;45.640;13.812;2024-03-23T11:20:13;19.30;99.90
63313;DHT22;49442;45.640;13.812;2024-03-23T11:25:22;19.10;99.90
63313;DHT22;49442;45.640;13.812;2024-03-23T11:27:50;19.00;99.90
63313;DHT22;49442;45.640;13.812;2024-03-23T11:30:21;18.90;99.90
63313;DHT22;49442;45.640;13.812;2024-03-23T11:32:51;19.10;99.90
63313;DHT22;49442;45.640;13.812;2024-03-23T11:35:36;19.10;99.90
63313;DHT22;49442;45.640;13.812;2024-03-23T11:38:07;19.30;99.90
63313;DHT22;49442;45.640;13.812;2024-03-23T11:40:34;19.10;99.90
63313;DHT22;49442;45.640;13.812;2024-03-23T11:43:02;19.10;99.90
63313;DHT22;49442;45.640;13.812;2024-03-23T11:45:29;19.10;99.90
63313;DHT22;49442;45.640;13.812;2024-03-23T11:48:16;19.20;99.90
63313;DHT22;49442;45.640;13.812;2024-03-23T11:50:55;19.10;99.90
63313;DHT22;49442;45.640;13.812;2024-03-23T11:53:22;19.00;99.90
63313;DHT22;49442;45.640;13.812;2024-03-23T11:55:52;19.10;99.90
63313;DHT22;49442;45.640;13.812;2024-03-23T11:58:22;19.10;99.90
63313;DHT22;49442;45.640;13.812;2024-03-23T12:01:04;19.10;99.90
63313;DHT22;49442;45.640;13.812;2024-03-23T12:03:31;19.20;99.90
63313;DHT22;49442;45.640;13.812;2024-03-23T12:06:02;19.30;99.90
63313;DHT22;49442;45.640;13.812;2024-03-23T12:08:31;19.30;99.90
63313;DHT22;49442;45.640;13.812;2024-03-23T12:11:24;19.50;99.90
63313;DHT22;49442;45.640;13.812;2024-03-23T12:13:51;19.40;99.90
63313;DHT22;49442;45.640;13.812;2024-03-23T12:16:20;19.50;99.90
63313;DHT22;49442;45.640;13.812;2024-03-23T12:18:48;19.70;99.90
63313;DHT22;49442;45.640;13.812;2024-03-23T12:21:14;19.80;99.90
63313;DHT22;49442;45.640;13.812;2024-03-23T12:23:41;19.70;99.90
63313;DHT22;49442;45.640;13.812;2024-03-23T12:26:07;19.70;99.90
63313;DHT22;49442;45.640;13.812;2024-03-23T12:28:33;19.90;99.90
63313;DHT22;49442;45.640;13.812;2024-03-23T12:30:59;19.70;99.90
63313;DHT22;49442;45.640;13.812;2024-03-23T12:33:25;19.80;99.90
63313;DHT22;49442;45.640;13.812;2024-03-23T12:35:51;19.70;99.90
63313;DHT22;49442;45.640;13.812;2024-03-23T12:38:17;19.60;99.90
63313;DHT22;49442;45.640;13.812;2024-03-23T12:40:46;19.60;99.90
63313;DHT22;49442;45.640;13.812;2024-03-23T12:43:13;19.80;99.90
63313;DHT22;49442;45.640;13.812;2024-03-23T12:45:39;19.90;99.90
63313;DHT22;49442;45.640;13.812;2024-03-23T12:48:05;19.90;99.90
63313;DHT22;49442;45.640;13.812;2024-03-23T12:50:30;20.00;99.90
63313;DHT22;49442;45.640;13.812;2024-03-23T12:52:56;20.00;99.90
63313;DHT22;49442;45.640;13.812;2024-03-23T12:55:22;20.10;99.90
63313;DHT22;49442;45.640;13.812;2024-03-23T12:57:48;20.20;99.90
63313;DHT22;49442;45.640;13.812;2024-03-23T13:00:14;20.20;99.90
63313;DHT22;49442;45.640;13.812;2024-03-23T13:02:41;20.20;99.90
63313;DHT22;49442;45.640;13.812;2024-03-23T13:05:07;20.20;99.90
63313;DHT22;49442;45.640;13.812;2024-03-23T13:07:35;20.30;99.90
63313;DHT22;49442;45.640;13.812;2024-03-23T13:10:03;20.40;99.90
63313;DHT22;49442;45.640;13.812;2024-03-23T13:12:29;20.50;99.90
63313;DHT22;49442;45.640;13.812;2024-03-23T13:14:56;20.50;99.90
63313;DHT22;49442;45.640;13.812;2024-03-23T13:17:22;20.40;99.90
63313;DHT22;49442;45.640;13.812;2024-03-23T13:19:47;20.30;99.90
63313;DHT22;49442;45.640;13.812;2024-03-23T13:22:13;20.40;99.90
63313;DHT22;49442;45.640;13.812;2024-03-23T13:24:39;20.50;99.90
63313;DHT22;49442;45.640;13.812;2024-03-23T13:27:05;20.50;99.90
63313;DHT22;49442;45.640;13.812;2024-03-23T13:29:34;20.60;99.90
63313;DHT22;49442;45.640;13.812;2024-03-23T13:32:01;20.70;99.90
63313;DHT22;49442;45.640;13.812;2024-03-23T13:34:26;20.80;99.90
63313;DHT22;49442;45.640;13.812;2024-03-23T13:36:53;20.90;99.90
63313;DHT22;49442;45.640;13.812;2024-03-23T13:39:19;20.90;99.90
63313;DHT22;49442;45.640;13.812;2024-03-23T13:41:45;20.70;99.90
63313;DHT22;49442;45.640;13.812;2024-03-23T13:44:12;20.50;99.90
63313;DHT22;49442;45.640;13.812;2024-03-23T13:46:39;20.40;99.90
63313;DHT22;49442;45.640;13.812;2024-03-23T13:49:05;20.20;99.90
63313;DHT22;49442;45.640;13.812;2024-03-23T13:51:31;20.20;99.90
63313;DHT22;49442;45.640;13.812;2024-03-23T13:53:57;20.00;99.90
63313;DHT22;49442;45.640;13.812;2024-03-23T13:56:29;20.00;99.90
63313;DHT22;49442;45.640;13.812;2024-03-23T13:58:55;20.00;99.90
63313;DHT22;49442;45.640;13.812;2024-03-23T14:01:22;19.90;99.90
63313;DHT22;49442;45.640;13.812;2024-03-23T14:03:48;19.80;99.90
63313;DHT22;49442;45.640;13.812;2024-03-23T14:06:13;19.90;99.90
63313;DHT22;49442;45.640;13.812;2024-03-23T14:08:39;19.90;99.90
63313;DHT22;49442;45.640;13.812;2024-03-23T14:11:09;19.90;99.90
63313;DHT22;49442;45.640;13.812;2024-03-23T14:13:35;20.10;99.90
63313;DHT22;49442;45.640;13.812;2024-03-23T14:16:01;20.10;99.90
63313;DHT22;49442;45.640;13.812;2024-03-23T14:18:27;20.20;99.90
63313;DHT22;49442;45.640;13.812;2024-03-23T14:20:57;20.30;99.90
63313;DHT22;49442;45.640;13.812;2024-03-23T14:23:29;20.30;99.90
63313;DHT22;49442;45.640;13.812;2024-03-23T14:25:56;20.40;99.90
63313;DHT22;49442;45.640;13.812;2024-03-23T14:28:22;20.40;98.60
63313;DHT22;49442;45.640;13.812;2024-03-23T14:30:52;20.40;97.90
63313;DHT22;49442;45.640;13.812;2024-03-23T14:33:20;20.20;97.40
63313;DHT22;49442;45.640;13.812;2024-03-23T14:35:56;20.20;98.00
63313;DHT22;49442;45.640;13.812;2024-03-23T14:38:23;20.20;97.00
63313;DHT22;49442;45.640;13.812;2024-03-23T14:40:49;20.10;97.10
63313;DHT22;49442;45.640;13.812;2024-03-23T14:43:15;20.20;97.30
63313;DHT22;49442;45.640;13.812;2024-03-23T14:46:12;20.10;97.00
63313;DHT22;49442;45.640;13.812;2024-03-23T14:48:39;20.10;96.40
63313;DHT22;49442;45.640;13.812;2024-03-23T14:51:05;20.10;96.90
63313;DHT22;49442;45.640;13.812;2024-03-23T14:53:35;20.10;97.20
63313;DHT22;49442;45.640;13.812;2024-03-23T14:56:02;20.00;97.00
63313;DHT22;49442;45.640;13.812;2024-03-23T14:58:29;20.10;97.30
63313;DHT22;49442;45.640;13.812;2024-03-23T15:01:02;20.10;97.70
63313;DHT22;49442;45.640;13.812;2024-03-23T15:03:28;20.20;97.50
63313;DHT22;49442;45.640;13.812;2024-03-23T15:05:57;20.30;97.30
63313;DHT22;49442;45.640;13.812;2024-03-23T15:08:23;20.50;96.40
63313;DHT22;49442;45.640;13.812;2024-03-23T15:10:49;20.70;94.80
63313;DHT22;49442;45.640;13.812;2024-03-23T15:13:15;20.60;94.20
63313;DHT22;49442;45.640;13.812;2024-03-23T15:15:41;20.30;94.30
63313;DHT22;49442;45.640;13.812;2024-03-23T15:18:12;20.30;95.10
63313;DHT22;49442;45.640;13.812;2024-03-23T15:20:40;20.30;95.90
63313;DHT22;49442;45.640;13.812;2024-03-23T15:23:06;20.20;96.00
63313;DHT22;49442;45.640;13.812;2024-03-23T15:25:32;20.10;95.70
63313;DHT22;49442;45.640;13.812;2024-03-23T15:27:58;19.90;95.70
63313;DHT22;49442;45.640;13.812;2024-03-23T15:30:26;19.70;96.70
63313;DHT22;49442;45.640;13.812;2024-03-23T15:32:51;19.50;96.80
63313;DHT22;49442;45.640;13.812;2024-03-23T15:35:18;19.30;96.40
63313;DHT22;49442;45.640;13.812;2024-03-23T15:37:44;19.10;96.70
63313;DHT22;49442;45.640;13.812;2024-03-23T15:40:10;19.10;97.10
63313;DHT22;49442;45.640;13.812;2024-03-23T15:42:37;19.00;97.00
63313;DHT22;49442;45.640;13.812;2024-03-23T15:45:06;18.90;97.70
63313;DHT22;49442;45.640;13.812;2024-03-23T15:47:33;18.90;97.70
63313;DHT22;49442;45.640;13.812;2024-03-23T15:49:58;18.90;97.70
63313;DHT22;49442;45.640;13.812;2024-03-23T15:52:24;18.90;97.90
63313;DHT22;49442;45.640;13.812;2024-03-23T15:54:49;18.80;97.70
63313;DHT22;49442;45.640;13.812;2024-03-23T15:57:15;18.80;98.20
63313;DHT22;49442;45.640;13.812;2024-03-23T15:59:41;18.70;98.40
63313;DHT22;49442;45.640;13.812;2024-03-23T16:02:07;18.70;98.50
63313;DHT22;49442;45.640;13.812;2024-03-23T16:04:32;18.70;98.50
63313;DHT22;49442;45.640;13.812;2024-03-23T16:06:58;18.60;97.90
63313;DHT22;49442;45.640;13.812;2024-03-23T16:09:24;18.50;98.20
63313;DHT22;49442;45.640;13.812;2024-03-23T16:11:49;18.50;98.00
63313;DHT22;49442;45.640;13.812;2024-03-23T16:14:15;18.60;98.70
63313;DHT22;49442;45.640;13.812;2024-03-23T16:16:40;18.70;98.10